sensor_id;sensor_type;location;lat;lon;timestamp;pressure;altitude;pressure_sealevel;temperature;humidity
15750;BME280;7976;52.526;13.326;2022-08-19T00:01:29;100510.16;;;22.34;93.59
15750;BME280;7976;52.526;13.326;2022-08-19T00:03:57;100507.75;;;22.31;94.23
15750;BME280;7976;52.526;13.326;2022-08-19T00:06:24;100510.56;;;22.30;94.50
15750;BME280;7976;52.526;13.326;2022-08-19T00:08:51;100501.28;;;22.24;93.84
15750;BME280;7976;52.526;13.326;2022-08-19T00:11:20;100509.28;;;22.24;94.36
15750;BME280;7976;52.526;13.326;2022-08-19T00:13:47;100513.75;;;22.24;94.45
15750;BME280;7976;52.526;13.326;2022-08-19T00:16:15;100514.34;;;22.27;94.55
15750;BME280;7976;52.526;13.326;2022-08-19T00:18:45;100504.38;;;22.29;93.91
15750;BME280;7976;52.526;13.326;2022-08-19T00:21:12;100495.66;;;22.27;94.18
15750;BME280;7976;52.526;13.326;2022-08-19T00:23:40;100500.03;;;22.28;93.67
15750;BME280;7976;52.526;13.326;2022-08-19T00:26:08;100514.91;;;22.31;93.34
15750;BME280;7976;52.526;13.326;2022-08-19T00:28:36;100502.41;;;22.31;93.53
15750;BME280;7976;52.526;13.326;2022-08-19T00:31:05;100510.16;;;22.34;93.28
15750;BME280;7976;52.526;13.326;2022-08-19T00:33:33;100505.38;;;22.38;93.16
15750;BME280;7976;52.526;13.326;2022-08-19T00:36:00;100511.56;;;22.38;92.88
15750;BME280;7976;52.526;13.326;2022-08-19T00:38:27;100515.19;;;22.37;92.39
15750;BME280;7976;52.526;13.326;2022-08-19T00:40:55;100517.88;;;22.37;92.02
15750;BME280;7976;52.526;13.326;2022-08-19T00:43:25;100508.91;;;22.38;92.15
15750;BME280;7976;52.526;13.326;2022-08-19T00:45:54;100500.03;;;22.38;92.28
15750;BME280;7976;52.526;13.326;2022-08-19T00:48:21;100485.72;;;22.39;92.00
15750;BME280;7976;52.526;13.326;2022-08-19T00:50:50;100493.84;;;22.37;91.57
15750;BME280;7976;52.526;13.326;2022-08-19T00:53:23;100483.03;;;22.39;91.45
15750;BME280;7976;52.526;13.326;2022-08-19T00:55:55;100484.03;;;22.38;91.80
15750;BME280;7976;52.526;13.326;2022-08-19T00:58:29;100480.38;;;22.39;91.45
15750;BME280;7976;52.526;13.326;2022-08-19T01:00:58;100484.75;;;22.40;91.47
15750;BME280;7976;52.526;13.326;2022-08-19T01:03:25;100495.28;;;22.42;91.28
15750;BME280;7976;52.526;13.326;2022-08-19T01:05:54;100493.03;;;22.37;91.15
15750;BME280;7976;52.526;13.326;2022-08-19T01:08:22;100502.56;;;22.30;91.52
15750;BME280;7976;52.526;13.326;2022-08-19T01:10:56;100491.69;;;22.12;92.26
15750;BME280;7976;52.526;13.326;2022-08-19T01:13:27;100493.75;;;21.90;93.15
15750;BME280;7976;52.526;13.326;2022-08-19T01:16:04;100501.13;;;21.77;94.07
15750;BME280;7976;52.526;13.326;2022-08-19T01:18:36;100509.03;;;21.67;94.70
15750;BME280;7976;52.526;13.326;2022-08-19T01:21:11;100513.09;;;21.62;95.80
15750;BME280;7976;52.526;13.326;2022-08-19T01:23:43;100516.59;;;21.62;95.94
15750;BME280;7976;52.526;13.326;2022-08-19T01:26:12;100511.25;;;21.62;96.18
15750;BME280;7976;52.526;13.326;2022-08-19T01:28:41;100519.97;;;21.64;97.02
15750;BME280;7976;52.526;13.326;2022-08-19T01:31:12;100514.63;;;21.64;97.11
15750;BME280;7976;52.526;13.326;2022-08-19T01:33:40;100517.56;;;21.61;97.12
15750;BME280;7976;52.526;13.326;2022-08-19T01:36:11;100522.72;;;21.53;97.67
15750;BME280;7976;52.526;13.326;2022-08-19T01:38:43;100530.28;;;21.48;98.20
15750;BME280;7976;52.526;13.326;2022-08-19T01:41:11;100528.56;;;21.47;98.55
15750;BME280;7976;52.526;13.326;2022-08-19T01:43:38;100530.28;;;21.48;98.62
15750;BME280;7976;52.526;13.326;2022-08-19T01:46:05;100532.41;;;21.54;98.92
15750;BME280;7976;52.526;13.326;2022-08-19T01:48:37;100528.50;;;21.58;99.08
15750;BME280;7976;52.526;13.326;2022-08-19T01:51:05;100538.31;;;21.58;99.16
15750;BME280;7976;52.526;13.326;2022-08-19T01:53:33;100525.25;;;21.55;99.07
15750;BME280;7976;52.526;13.326;2022-08-19T01:56:03;100527.59;;;21.48;99.10
15750;BME280;7976;52.526;13.326;2022-08-19T01:58:36;100538.41;;;21.47;99.94
15750;BME280;7976;52.526;13.326;2022-08-19T02:01:05;100551.13;;;21.43;99.77
15750;BME280;7976;52.526;13.326;2022-08-19T02:03:32;100550.41;;;21.41;100.00
15750;BME280;7976;52.526;13.326;2022-08-19T02:06:02;100539.75;;;21.41;100.00
15750;BME280;7976;52.526;13.326;2022-08-19T02:08:33;100541.09;;;21.36;100.00
15750;BME280;7976;52.526;13.326;2022-08-19T02:11:04;100522.59;;;21.34;100.00
15750;BME280;7976;52.526;13.326;2022-08-19T02:13:32;100515.00;;;21.30;100.00
15750;BME280;7976;52.526;13.326;2022-08-19T02:15:59;100506.16;;;21.29;100.00
15750;BME280;7976;52.526;13.326;2022-08-19T02:18:26;100500.13;;;21.27;100.00
15750;BME280;7976;52.526;13.326;2022-08-19T02:20:53;100470.38;;;21.22;100.00
15750;BME280;7976;52.526;13.326;2022-08-19T02:23:20;100447.53;;;21.20;100.00
15750;BME280;7976;52.526;13.326;2022-08-19T02:25:48;100445.97;;;21.17;100.00
15750;BME280;7976;52.526;13.326;2022-08-19T02:28:16;100434.88;;;21.12;100.00
15750;BME280;7976;52.526;13.326;2022-08-19T02:30:43;100419.31;;;21.07;100.00
15750;BME280;7976;52.526;13.326;2022-08-19T02:33:10;100402.75;;;21.04;100.00
15750;BME280;7976;52.526;13.326;2022-08-19T02:35:41;100405.81;;;20.99;100.00
15750;BME280;7976;52.526;13.326;2022-08-19T02:38:08;100410.53;;;20.96;100.00
15750;BME280;7976;52.526;13.326;2022-08-19T02:40:57;100412.19;;;20.97;100.00
15750;BME280;7976;52.526;13.326;2022-08-19T02:43:28;100412.09;;;20.98;100.00
15750;BME280;7976;52.526;13.326;2022-08-19T02:45:55;100413.81;;;20.99;100.00
15750;BME280;7976;52.526;13.326;2022-08-19T02:48:24;100413.41;;;21.04;100.00
15750;BME280;7976;52.526;13.326;2022-08-19T02:50:53;100414.25;;;21.04;100.00
15750;BME280;7976;52.526;13.326;2022-08-19T02:53:22;100408.06;;;21.04;100.00
15750;BME280;7976;52.526;13.326;2022-08-19T02:55:51;100406.41;;;21.03;100.00
15750;BME280;7976;52.526;13.326;2022-08-19T02:58:20;100418.13;;;21.00;100.00
15750;BME280;7976;52.526;13.326;2022-08-19T03:00:52;100432.44;;;20.99;100.00
15750;BME280;7976;52.526;13.326;2022-08-19T03:03:20;100432.66;;;20.96;100.00
15750;BME280;7976;52.526;13.326;2022-08-19T03:05:47;100433.38;;;20.98;100.00
15750;BME280;7976;52.526;13.326;2022-08-19T03:08:14;100420.31;;;20.95;100.00
15750;BME280;7976;52.526;13.326;2022-08-19T03:10:43;100425.63;;;20.95;100.00
15750;BME280;7976;52.526;13.326;2022-08-19T03:13:13;100422.84;;;20.97;100.00
15750;BME280;7976;52.526;13.326;2022-08-19T03:15:46;100430.50;;;21.01;100.00
15750;BME280;7976;52.526;13.326;2022-08-19T03:18:16;100433.97;;;21.02;100.00
15750;BME280;7976;52.526;13.326;2022-08-19T03:20:45;100429.38;;;21.04;100.00
15750;BME280;7976;52.526;13.326;2022-08-19T03:23:14;100436.13;;;21.08;100.00
15750;BME280;7976;52.526;13.326;2022-08-19T03:25:46;100421.84;;;21.09;100.00
15750;BME280;7976;52.526;13.326;2022-08-19T03:28:15;100424.63;;;21.07;100.00
15750;BME280;7976;52.526;13.326;2022-08-19T03:30:54;100413.97;;;21.07;100.00
15750;BME280;7976;52.526;13.326;2022-08-19T03:33:25;100416.25;;;21.12;100.00
15750;BME280;7976;52.526;13.326;2022-08-19T03:36:06;100419.63;;;21.14;100.00
15750;BME280;7976;52.526;13.326;2022-08-19T03:38:35;100412.47;;;21.14;100.00
15750;BME280;7976;52.526;13.326;2022-08-19T03:41:05;100409.25;;;21.11;100.00
15750;BME280;7976;52.526;13.326;2022-08-19T03:43:35;100410.34;;;21.08;100.00
15750;BME280;7976;52.526;13.326;2022-08-19T03:46:05;100410.47;;;21.07;100.00
15750;BME280;7976;52.526;13.326;2022-08-19T03:48:34;100410.34;;;21.08;100.00
15750;BME280;7976;52.526;13.326;2022-08-19T03:51:03;100419.63;;;21.14;100.00
15750;BME280;7976;52.526;13.326;2022-08-19T03:53:32;100428.59;;;21.13;100.00
15750;BME280;7976;52.526;13.326;2022-08-19T03:56:00;100417.94;;;21.13;100.00
15750;BME280;7976;52.526;13.326;2022-08-19T03:58:29;100420.16;;;21.08;100.00
15750;BME280;7976;52.526;13.326;2022-08-19T04:00:57;100423.50;;;21.10;100.00
15750;BME280;7976;52.526;13.326;2022-08-19T04:03:24;100421.84;;;21.09;100.00
15750;BME280;7976;52.526;13.326;2022-08-19T04:05:53;100421.13;;;21.07;100.00
15750;BME280;7976;52.526;13.326;2022-08-19T04:08:20;100419.16;;;21.09;100.00
15750;BME280;7976;52.526;13.326;2022-08-19T04:10:48;100414.69;;;21.09;100.00
15750;BME280;7976;52.526;13.326;2022-08-19T04:13:17;100410.19;;;21.10;100.00
15750;BME280;7976;52.526;13.326;2022-08-19T04:15:45;100420.59;;;21.13;100.00
15750;BME280;7976;52.526;13.326;2022-08-19T04:18:13;100421.06;;;21.18;100.00
15750;BME280;7976;52.526;13.326;2022-08-19T04:20:45;100419.06;;;21.20;100.00
15750;BME280;7976;52.526;13.326;2022-08-19T04:23:14;100425.84;;;21.24;100.00
15750;BME280;7976;52.526;13.326;2022-08-19T04:25:43;100434.69;;;21.25;100.00
15750;BME280;7976;52.526;13.326;2022-08-19T04:28:12;100439.88;;;21.26;100.00
15750;BME280;7976;52.526;13.326;2022-08-19T04:30:42;100435.94;;;21.30;100.00
15750;BME280;7976;52.526;13.326;2022-08-19T04:33:11;100442.97;;;21.31;100.00
15750;BME280;7976;52.526;13.326;2022-08-19T04:35:41;100443.44;;;21.36;100.00
15750;BME280;7976;52.526;13.326;2022-08-19T04:38:10;100435.16;;;21.39;100.00
15750;BME280;7976;52.526;13.326;2022-08-19T04:40:42;100435.88;;;21.41;100.00
15750;BME280;7976;52.526;13.326;2022-08-19T04:43:27;100444.59;;;21.43;100.00
15750;BME280;7976;52.526;13.326;2022-08-19T04:45:56;100427.03;;;21.41;100.00
15750;BME280;7976;52.526;13.326;2022-08-19T04:48:23;100439.50;;;21.40;100.00
15750;BME280;7976;52.526;13.326;2022-08-19T04:50:53;100446.53;;;21.41;100.00
15750;BME280;7976;52.526;13.326;2022-08-19T04:53:23;100448.22;;;21.42;100.00
15750;BME280;7976;52.526;13.326;2022-08-19T04:55:56;100444.19;;;21.48;100.00
15750;BME280;7976;52.526;13.326;2022-08-19T04:58:25;100441.09;;;21.52;100.00
15750;BME280;7976;52.526;13.326;2022-08-19T05:00:54;100443.06;;;21.50;100.00
15750;BME280;7976;52.526;13.326;2022-08-19T05:03:21;100439.44;;;21.51;99.97
15750;BME280;7976;52.526;13.326;2022-08-19T05:05:48;100436.19;;;21.48;100.00
15750;BME280;7976;52.526;13.326;2022-08-19T05:08:21;100437.19;;;21.47;100.00
15750;BME280;7976;52.526;13.326;2022-08-19T05:10:51;100433.53;;;21.48;100.00
15750;BME280;7976;52.526;13.326;2022-08-19T05:13:19;100423.44;;;21.51;99.69
15750;BME280;7976;52.526;13.326;2022-08-19T05:15:54;100418.69;;;21.55;100.00
15750;BME280;7976;52.526;13.326;2022-08-19T05:18:21;100419.28;;;21.58;99.28
15750;BME280;7976;52.526;13.326;2022-08-19T05:21:08;100414.63;;;21.60;99.47
15750;BME280;7976;52.526;13.326;2022-08-19T05:23:52;100417.28;;;21.60;99.30
15750;BME280;7976;52.526;13.326;2022-08-19T05:26:19;100406.53;;;21.62;99.06
15750;BME280;7976;52.526;13.326;2022-08-19T05:28:47;100407.22;;;21.64;98.48
15750;BME280;7976;52.526;13.326;2022-08-19T05:31:14;100418.72;;;21.64;98.87
15750;BME280;7976;52.526;13.326;2022-08-19T05:33:41;100415.78;;;21.67;98.42
15750;BME280;7976;52.526;13.326;2022-08-19T05:36:08;100405.84;;;21.69;98.60
15750;BME280;7976;52.526;13.326;2022-08-19T05:38:35;100413.81;;;21.69;98.23
15750;BME280;7976;52.526;13.326;2022-08-19T05:41:07;100412.84;;;21.70;98.12
15750;BME280;7976;52.526;13.326;2022-08-19T05:43:34;100406.13;;;21.76;98.37
15750;BME280;7976;52.526;13.326;2022-08-19T05:46:04;100410.81;;;21.83;97.55
15750;BME280;7976;52.526;13.326;2022-08-19T05:48:31;100395.94;;;21.90;97.88
15750;BME280;7976;52.526;13.326;2022-08-19T05:51:03;100408.75;;;21.96;97.38
15750;BME280;7976;52.526;13.326;2022-08-19T05:53:31;100404.56;;;22.03;97.16
15750;BME280;7976;52.526;13.326;2022-08-19T05:56:04;100410.47;;;22.07;97.21
15750;BME280;7976;52.526;13.326;2022-08-19T05:58:31;100406.09;;;22.06;96.93
15750;BME280;7976;52.526;13.326;2022-08-19T06:00:58;100416.31;;;22.10;96.87
15750;BME280;7976;52.526;13.326;2022-08-19T06:03:32;100420.41;;;22.14;96.35
15750;BME280;7976;52.526;13.326;2022-08-19T06:06:00;100426.03;;;22.21;96.01
15750;BME280;7976;52.526;13.326;2022-08-19T06:08:28;100431.94;;;22.24;96.11
15750;BME280;7976;52.526;13.326;2022-08-19T06:10:56;100429.28;;;22.24;95.77
15750;BME280;7976;52.526;13.326;2022-08-19T06:13:23;100433.59;;;22.25;95.37
15750;BME280;7976;52.526;13.326;2022-08-19T06:15:51;100434.19;;;22.29;95.28
15750;BME280;7976;52.526;13.326;2022-08-19T06:18:18;100431.25;;;22.32;95.27
15750;BME280;7976;52.526;13.326;2022-08-19T06:20:46;100424.63;;;22.36;95.51
15750;BME280;7976;52.526;13.326;2022-08-19T06:23:14;100416.09;;;22.42;94.78
15750;BME280;7976;52.526;13.326;2022-08-19T06:25:42;100422.69;;;22.48;94.71
15750;BME280;7976;52.526;13.326;2022-08-19T06:28:08;100419.50;;;22.54;94.86
15750;BME280;7976;52.526;13.326;2022-08-19T06:30:36;100424.53;;;22.57;94.48
15750;BME280;7976;52.526;13.326;2022-08-19T06:33:03;100425.09;;;22.60;93.96
15750;BME280;7976;52.526;13.326;2022-08-19T06:35:30;100430.16;;;22.63;94.05
15750;BME280;7976;52.526;13.326;2022-08-19T06:37:58;100427.34;;;22.65;93.38
15750;BME280;7976;52.526;13.326;2022-08-19T06:40:25;100438.88;;;22.65;93.11
15750;BME280;7976;52.526;13.326;2022-08-19T06:42:52;100443.22;;;22.66;92.82
15750;BME280;7976;52.526;13.326;2022-08-19T06:45:19;100445.03;;;22.66;92.82
15750;BME280;7976;52.526;13.326;2022-08-19T06:47:46;100446.88;;;22.65;92.84
15750;BME280;7976;52.526;13.326;2022-08-19T06:50:14;100448.69;;;22.65;93.29
15750;BME280;7976;52.526;13.326;2022-08-19T06:52:41;100460.78;;;22.69;93.11
15750;BME280;7976;52.526;13.326;2022-08-19T06:55:09;100461.47;;;22.71;92.76
15750;BME280;7976;52.526;13.326;2022-08-19T06:57:36;100464.13;;;22.71;92.74
15750;BME280;7976;52.526;13.326;2022-08-19T07:00:05;100465.84;;;22.72;92.96
15750;BME280;7976;52.526;13.326;2022-08-19T07:02:36;100483.53;;;22.73;93.01
15750;BME280;7976;52.526;13.326;2022-08-19T07:05:04;100481.84;;;22.72;92.81
15750;BME280;7976;52.526;13.326;2022-08-19T07:07:31;100483.53;;;22.73;92.34
15750;BME280;7976;52.526;13.326;2022-08-19T07:09:59;100479.19;;;22.72;92.67
15750;BME280;7976;52.526;13.326;2022-08-19T07:12:30;100472.03;;;22.72;92.82
15750;BME280;7976;52.526;13.326;2022-08-19T07:14:58;100464.56;;;22.76;92.86
15750;BME280;7976;52.526;13.326;2022-08-19T07:17:27;100461.63;;;22.79;92.51
15750;BME280;7976;52.526;13.326;2022-08-19T07:19:54;100452.34;;;22.83;92.24
15750;BME280;7976;52.526;13.326;2022-08-19T07:22:22;100464.13;;;22.90;91.98
15750;BME280;7976;52.526;13.326;2022-08-19T07:24:49;100455.84;;;22.93;91.33
15750;BME280;7976;52.526;13.326;2022-08-19T07:27:15;100457.94;;;22.99;91.78
15750;BME280;7976;52.526;13.326;2022-08-19T07:29:44;100456.66;;;23.03;91.03
15750;BME280;7976;52.526;13.326;2022-08-19T07:32:11;100464.13;;;23.09;91.28
15750;BME280;7976;52.526;13.326;2022-08-19T07:34:38;100478.16;;;23.11;91.30
15750;BME280;7976;52.526;13.326;2022-08-19T07:37:06;100480.69;;;23.12;91.16
15750;BME280;7976;52.526;13.326;2022-08-19T07:39:36;100483.22;;;23.14;91.03
15750;BME280;7976;52.526;13.326;2022-08-19T07:42:09;100485.75;;;23.15;91.37
15750;BME280;7976;52.526;13.326;2022-08-19T07:44:37;100483.22;;;23.14;91.05
15750;BME280;7976;52.526;13.326;2022-08-19T07:47:05;100497.97;;;23.18;90.97
15750;BME280;7976;52.526;13.326;2022-08-19T07:49:32;100502.47;;;23.17;90.81
15750;BME280;7976;52.526;13.326;2022-08-19T07:52:04;100501.78;;;23.15;90.86
15750;BME280;7976;52.526;13.326;2022-08-19T07:54:35;100497.28;;;23.16;91.03
15750;BME280;7976;52.526;13.326;2022-08-19T07:57:05;100497.53;;;23.13;90.72
15750;BME280;7976;52.526;13.326;2022-08-19T07:59:32;100502.06;;;23.12;90.68
15750;BME280;7976;52.526;13.326;2022-08-19T08:01:59;100504.31;;;23.17;90.74
15750;BME280;7976;52.526;13.326;2022-08-19T08:04:31;100514.69;;;23.20;91.13
15750;BME280;7976;52.526;13.326;2022-08-19T08:07:16;100514.69;;;23.20;90.48
15750;BME280;7976;52.526;13.326;2022-08-19T08:10:03;100514.69;;;23.20;90.54
15750;BME280;7976;52.526;13.326;2022-08-19T08:12:37;100519.19;;;23.19;91.06
15750;BME280;7976;52.526;13.326;2022-08-19T08:15:11;100516.66;;;23.18;90.92
15750;BME280;7976;52.526;13.326;2022-08-19T08:17:43;100524.81;;;23.16;90.83
15750;BME280;7976;52.526;13.326;2022-08-19T08:20:13;100528.78;;;23.12;91.26
15750;BME280;7976;52.526;13.326;2022-08-19T08:22:44;100533.97;;;23.14;91.18
15750;BME280;7976;52.526;13.326;2022-08-19T08:25:30;100531.31;;;23.14;91.45
15750;BME280;7976;52.526;13.326;2022-08-19T08:27:57;100533.81;;;23.15;91.47
15750;BME280;7976;52.526;13.326;2022-08-19T08:30:28;100540.69;;;23.18;91.50
15750;BME280;7976;52.526;13.326;2022-08-19T08:32:56;100531.88;;;23.17;91.91
15750;BME280;7976;52.526;13.326;2022-08-19T08:35:24;100543.38;;;23.18;92.06
15750;BME280;7976;52.526;13.326;2022-08-19T08:37:54;100538.03;;;23.18;91.70
15750;BME280;7976;52.526;13.326;2022-08-19T08:40:28;100551.38;;;23.18;91.91
15750;BME280;7976;52.526;13.326;2022-08-19T08:43:02;100544.94;;;23.20;92.04
15750;BME280;7976;52.526;13.326;2022-08-19T08:45:33;100546.75;;;23.20;92.12
15750;BME280;7976;52.526;13.326;2022-08-19T08:48:12;100537.88;;;23.19;91.81
15750;BME280;7976;52.526;13.326;2022-08-19T08:50:46;100543.13;;;23.21;91.95
15750;BME280;7976;52.526;13.326;2022-08-19T08:53:19;100547.59;;;23.20;91.98
15750;BME280;7976;52.526;13.326;2022-08-19T08:55:46;100548.56;;;23.19;92.06
15750;BME280;7976;52.526;13.326;2022-08-19T08:58:21;100548.72;;;23.18;91.59
15750;BME280;7976;52.526;13.326;2022-08-19T09:00:52;100552.94;;;23.20;91.57
15750;BME280;7976;52.526;13.326;2022-08-19T09:03:22;100557.28;;;23.21;91.74
15750;BME280;7976;52.526;13.326;2022-08-19T09:06:00;100561.66;;;23.22;91.78
15750;BME280;7976;52.526;13.326;2022-08-19T09:08:45;100564.34;;;23.22;91.32
15750;BME280;7976;52.526;13.326;2022-08-19T09:11:20;100558.28;;;23.20;91.69
15750;BME280;7976;52.526;13.326;2022-08-19T09:14:08;100559.97;;;23.21;91.78
15750;BME280;7976;52.526;13.326;2022-08-19T09:16:36;100564.47;;;23.21;91.88
15750;BME280;7976;52.526;13.326;2022-08-19T09:19:07;100557.84;;;23.25;91.50
15750;BME280;7976;52.526;13.326;2022-08-19T09:21:37;100561.69;;;23.32;91.50
15750;BME280;7976;52.526;13.326;2022-08-19T09:24:05;100548.28;;;23.41;91.63
15750;BME280;7976;52.526;13.326;2022-08-19T09:26:32;100538.28;;;23.53;91.43
15750;BME280;7976;52.526;13.326;2022-08-19T09:29:00;100537.13;;;23.65;91.00
15750;BME280;7976;52.526;13.326;2022-08-19T09:31:31;100529.91;;;23.75;90.23
15750;BME280;7976;52.526;13.326;2022-08-19T09:33:59;100535.94;;;23.87;89.78
15750;BME280;7976;52.526;13.326;2022-08-19T09:36:31;100532.84;;;23.91;89.51
15750;BME280;7976;52.526;13.326;2022-08-19T09:39:00;100544.91;;;23.95;89.48
15750;BME280;7976;52.526;13.326;2022-08-19T09:41:27;100533.09;;;23.98;89.53
15750;BME280;7976;52.526;13.326;2022-08-19T09:43:56;100536.72;;;23.97;89.29
15750;BME280;7976;52.526;13.326;2022-08-19T09:46:27;100533.09;;;23.98;88.50
15750;BME280;7976;52.526;13.326;2022-08-19T09:48:54;100536.34;;;24.01;88.30
15750;BME280;7976;52.526;13.326;2022-08-19T09:51:26;100533.38;;;24.04;88.22
15750;BME280;7976;52.526;13.326;2022-08-19T09:53:54;100523.63;;;24.03;87.75
15750;BME280;7976;52.526;13.326;2022-08-19T09:56:26;100531.81;;;24.02;88.20
15750;BME280;7976;52.526;13.326;2022-08-19T09:58:53;100533.94;;;23.98;87.61
15750;BME280;7976;52.526;13.326;2022-08-19T10:01:23;100530.56;;;23.96;87.64
15750;BME280;7976;52.526;13.326;2022-08-19T10:03:53;100524.09;;;23.99;87.66
15750;BME280;7976;52.526;13.326;2022-08-19T10:06:21;100528.00;;;24.04;87.41
15750;BME280;7976;52.526;13.326;2022-08-19T10:08:49;100532.22;;;24.07;87.71
15750;BME280;7976;52.526;13.326;2022-08-19T10:11:18;100547.44;;;24.06;87.36
15750;BME280;7976;52.526;13.326;2022-08-19T10:13:47;100542.09;;;24.06;87.87
15750;BME280;7976;52.526;13.326;2022-08-19T10:16:18;100540.09;;;24.08;87.61
15750;BME280;7976;52.526;13.326;2022-08-19T10:18:48;100534.00;;;24.16;87.22
15750;BME280;7976;52.526;13.326;2022-08-19T10:21:18;100529.44;;;24.26;86.96
15750;BME280;7976;52.526;13.326;2022-08-19T10:23:49;100526.69;;;24.35;86.61
15750;BME280;7976;52.526;13.326;2022-08-19T10:26:20;100529.38;;;24.35;86.19
15750;BME280;7976;52.526;13.326;2022-08-19T10:28:49;100531.50;;;24.32;86.38
15750;BME280;7976;52.526;13.326;2022-08-19T10:31:19;100526.63;;;24.27;86.04
15750;BME280;7976;52.526;13.326;2022-08-19T10:33:47;100522.00;;;24.20;86.01
15750;BME280;7976;52.526;13.326;2022-08-19T10:36:19;100522.47;;;24.15;86.28
15750;BME280;7976;52.526;13.326;2022-08-19T10:38:53;100520.09;;;24.12;86.87
15750;BME280;7976;52.526;13.326;2022-08-19T10:41:26;100522.06;;;24.10;86.60
15750;BME280;7976;52.526;13.326;2022-08-19T10:44:00;100524.59;;;24.12;86.09
15750;BME280;7976;52.526;13.326;2022-08-19T10:46:29;100523.38;;;24.06;86.30
15750;BME280;7976;52.526;13.326;2022-08-19T10:48:57;100520.28;;;24.01;86.24
15750;BME280;7976;52.526;13.326;2022-08-19T10:51:24;100524.34;;;23.96;86.00
15750;BME280;7976;52.526;13.326;2022-08-19T10:54:08;100520.59;;;23.89;86.38
15750;BME280;7976;52.526;13.326;2022-08-19T10:56:35;100520.19;;;23.84;86.21
15750;BME280;7976;52.526;13.326;2022-08-19T10:59:21;100521.59;;;23.78;86.51
15750;BME280;7976;52.526;13.326;2022-08-19T11:01:50;100532.28;;;23.78;87.29
15750;BME280;7976;52.526;13.326;2022-08-19T11:04:19;100521.75;;;23.77;86.89
15750;BME280;7976;52.526;13.326;2022-08-19T11:06:48;100524.28;;;23.78;86.88
15750;BME280;7976;52.526;13.326;2022-08-19T11:09:20;100528.50;;;23.81;87.09
15750;BME280;7976;52.526;13.326;2022-08-19T11:11:50;100533.00;;;23.80;87.00
15750;BME280;7976;52.526;13.326;2022-08-19T11:14:20;100538.03;;;23.83;87.03
15750;BME280;7976;52.526;13.326;2022-08-19T11:16:52;100545.91;;;23.85;87.30
15750;BME280;7976;52.526;13.326;2022-08-19T11:19:22;100529.75;;;23.86;86.84
15750;BME280;7976;52.526;13.326;2022-08-19T11:21:51;100541.28;;;23.87;87.07
15750;BME280;7976;52.526;13.326;2022-08-19T11:24:23;100545.09;;;23.84;86.75
15750;BME280;7976;52.526;13.326;2022-08-19T11:26:53;100547.06;;;23.82;87.30
15750;BME280;7976;52.526;13.326;2022-08-19T11:29:23;100550.03;;;23.79;86.78
15750;BME280;7976;52.526;13.326;2022-08-19T11:31:53;100547.22;;;23.81;86.54
15750;BME280;7976;52.526;13.326;2022-08-19T11:34:25;100547.78;;;23.84;87.05
15750;BME280;7976;52.526;13.326;2022-08-19T11:36:54;100542.44;;;23.84;86.81
15750;BME280;7976;52.526;13.326;2022-08-19T11:39:24;100550.44;;;23.84;86.80
15750;BME280;7976;52.526;13.326;2022-08-19T11:41:51;100545.09;;;23.84;86.39
15750;BME280;7976;52.526;13.326;2022-08-19T11:44:18;100549.44;;;23.85;86.60
15750;BME280;7976;52.526;13.326;2022-08-19T11:46:47;100553.81;;;23.86;87.00
15750;BME280;7976;52.526;13.326;2022-08-19T11:49:16;100555.34;;;23.89;87.22
15750;BME280;7976;52.526;13.326;2022-08-19T11:51:46;100558.31;;;23.86;87.06
15750;BME280;7976;52.526;13.326;2022-08-19T11:54:16;100559.44;;;23.83;86.81
15750;BME280;7976;52.526;13.326;2022-08-19T11:56:44;100563.13;;;23.82;86.90
15750;BME280;7976;52.526;13.326;2022-08-19T11:59:13;100567.75;;;23.80;86.50
15750;BME280;7976;52.526;13.326;2022-08-19T12:01:40;100566.78;;;23.81;86.55
15750;BME280;7976;52.526;13.326;2022-08-19T12:04:10;100571.13;;;23.82;86.83
15750;BME280;7976;52.526;13.326;2022-08-19T12:06:42;100569.00;;;23.86;86.36
15750;BME280;7976;52.526;13.326;2022-08-19T12:09:10;100571.94;;;23.92;86.04
15750;BME280;7976;52.526;13.326;2022-08-19T12:11:39;100573.34;;;23.96;85.40
15750;BME280;7976;52.526;13.326;2022-08-19T12:14:09;100575.03;;;23.97;85.57
15750;BME280;7976;52.526;13.326;2022-08-19T12:16:37;100579.66;;;23.95;85.35
15750;BME280;7976;52.526;13.326;2022-08-19T12:19:04;100577.84;;;23.96;84.87
15750;BME280;7976;52.526;13.326;2022-08-19T12:21:35;100581.50;;;23.95;84.62
15750;BME280;7976;52.526;13.326;2022-08-19T12:24:05;100577.28;;;23.92;84.55
15750;BME280;7976;52.526;13.326;2022-08-19T12:26:32;100576.44;;;23.92;85.03
15750;BME280;7976;52.526;13.326;2022-08-19T12:28:59;100587.00;;;23.93;84.38
15750;BME280;7976;52.526;13.326;2022-08-19T12:31:26;100588.00;;;23.92;84.16
15750;BME280;7976;52.526;13.326;2022-08-19T12:33:54;100586.16;;;23.93;84.29
15750;BME280;7976;52.526;13.326;2022-08-19T12:36:21;100582.94;;;23.99;84.61
15750;BME280;7976;52.526;13.326;2022-08-19T12:38:50;100580.50;;;24.05;84.13
15750;BME280;7976;52.526;13.326;2022-08-19T12:41:19;100582.88;;;24.18;83.70
15750;BME280;7976;52.526;13.326;2022-08-19T12:43:48;100589.84;;;24.28;83.55
15750;BME280;7976;52.526;13.326;2022-08-19T12:46:16;100580.53;;;24.32;83.16
15750;BME280;7976;52.526;13.326;2022-08-19T12:48:43;100590.94;;;24.35;82.78
15750;BME280;7976;52.526;13.326;2022-08-19T12:51:13;100576.97;;;24.41;82.58
15750;BME280;7976;52.526;13.326;2022-08-19T12:53:41;100580.13;;;24.54;82.08
15750;BME280;7976;52.526;13.326;2022-08-19T12:56:11;100587.94;;;24.65;81.30
15750;BME280;7976;52.526;13.326;2022-08-19T12:58:40;100587.66;;;24.68;81.42
15750;BME280;7976;52.526;13.326;2022-08-19T13:01:10;100582.03;;;24.71;81.10